createdAt,value
2023-01-27T00:04:56.529Z,5.87
2023-01-27T00:09:58.642Z,5.07
2023-01-27T00:15:00.779Z,6.50
2023-01-27T00:20:04.043Z,5.70
2023-01-27T00:25:06.728Z,4.70
2023-01-27T00:30:09.623Z,5.10
2023-01-27T00:35:12.439Z,4.73
2023-01-27T00:40:17.390Z,5.20
2023-01-27T00:45:37.927Z,5.70
2023-01-27T00:50:41.151Z,4.40
2023-01-27T00:55:43.389Z,4.70
2023-01-27T01:00:45.759Z,4.07
2023-01-27T01:05:48.221Z,5.00
2023-01-27T01:10:50.362Z,5.33
2023-01-27T01:15:52.514Z,4.17
2023-01-27T01:20:54.574Z,4.87
2023-01-27T01:26:10.582Z,4.77
2023-01-27T01:31:16.120Z,4.60
2023-01-27T01:36:20.484Z,4.73
2023-01-27T01:41:23.386Z,4.90
2023-01-27T01:46:25.612Z,5.13
2023-01-27T01:52:04.294Z,4.37
2023-01-27T01:57:20.292Z,4.50
2023-01-27T02:02:26.117Z,5.17
2023-01-27T02:07:34.772Z,4.10
2023-01-27T02:12:36.959Z,4.87
2023-01-27T02:17:42.235Z,4.73
2023-01-27T02:23:12.480Z,4.10
2023-01-27T02:28:14.657Z,4.07
2023-01-27T02:33:16.755Z,4.63
2023-01-27T02:38:20.149Z,4.00
2023-01-27T02:43:22.268Z,3.63
2023-01-27T02:48:24.455Z,4.33
2023-01-27T02:53:26.697Z,3.53
2023-01-27T02:58:30.187Z,3.80
2023-01-27T03:03:47.650Z,3.88
2023-01-27T03:08:53.971Z,3.33
2023-01-27T03:13:56.725Z,3.80
2023-01-27T03:18:58.941Z,3.30
2023-01-27T03:24:01.491Z,3.43
2023-01-27T03:29:22.126Z,3.13
2023-01-27T03:34:24.671Z,3.00
2023-01-27T03:39:50.209Z,3.17
2023-01-27T03:45:11.304Z,3.03
2023-01-27T03:50:19.569Z,2.27
2023-01-27T03:55:23.379Z,2.40
2023-01-27T04:00:25.570Z,2.73
2023-01-27T04:05:46.137Z,2.93
2023-01-27T04:11:08.264Z,2.13
2023-01-27T04:16:10.674Z,2.30
2023-01-27T04:21:14.036Z,2.40
2023-01-27T04:26:19.139Z,2.10
2023-01-27T04:31:21.228Z,2.30
2023-01-27T04:36:23.362Z,2.47
2023-01-27T04:41:25.478Z,1.90
2023-01-27T04:46:27.637Z,2.47
2023-01-27T04:51:29.857Z,2.30
2023-01-27T04:56:34.334Z,2.83
2023-01-27T05:01:36.596Z,2.57
2023-01-27T05:06:38.705Z,2.10
2023-01-27T05:11:40.834Z,3.07
2023-01-27T05:16:43.003Z,2.47
2023-01-27T05:21:45.378Z,2.87
2023-01-27T05:26:47.477Z,2.97
2023-01-27T05:31:50.622Z,2.83
2023-01-27T05:36:55.696Z,2.37
2023-01-27T05:41:58.124Z,2.40
2023-01-27T05:47:00.252Z,2.50
2023-01-27T05:52:02.396Z,2.07
2023-01-27T05:57:04.974Z,2.47
2023-01-27T06:02:07.510Z,2.63
2023-01-27T06:07:09.628Z,3.00
2023-01-27T06:12:11.847Z,2.33
2023-01-27T06:17:13.958Z,2.77
2023-01-27T06:22:16.074Z,2.30
2023-01-27T06:27:18.315Z,2.63
2023-01-27T06:32:20.367Z,2.67
2023-01-27T06:37:23.029Z,2.57
2023-01-27T06:42:25.723Z,1.90
2023-01-27T06:47:27.830Z,3.03
2023-01-27T06:52:29.954Z,3.37
2023-01-27T06:57:32.139Z,2.87
2023-01-27T07:02:34.378Z,2.40
2023-01-27T07:07:36.832Z,2.47
2023-01-27T07:12:39.840Z,3.00
2023-01-27T07:17:42.170Z,2.83
2023-01-27T07:22:44.303Z,2.93
2023-01-27T07:27:46.452Z,2.83
2023-01-27T07:32:50.569Z,2.90
2023-01-27T07:37:52.846Z,2.60
2023-01-27T07:42:59.133Z,2.43
2023-01-27T07:48:08.031Z,3.20
2023-01-27T07:53:17.841Z,2.47
2023-01-27T07:58:20.286Z,2.90
2023-01-27T08:03:27.717Z,3.43
2023-01-27T08:08:29.922Z,2.93
2023-01-27T08:13:32.326Z,3.13
2023-01-27T08:18:34.971Z,3.87
2023-01-27T08:23:37.663Z,2.37
2023-01-27T08:28:40.694Z,3.27
2023-01-27T08:33:44.762Z,2.40
2023-01-27T08:38:49.446Z,3.27
2023-01-27T08:43:51.921Z,2.20
2023-01-27T08:48:54.184Z,3.17
2023-01-27T08:53:56.859Z,3.23
2023-01-27T08:58:59.178Z,3.30
2023-01-27T09:04:01.350Z,2.47
2023-01-27T09:09:11.443Z,3.23
2023-01-27T09:14:14.227Z,3.10
2023-01-27T09:19:16.689Z,2.57
2023-01-27T09:24:19.692Z,3.07
2023-01-27T09:29:22.079Z,2.63
2023-01-27T09:34:24.407Z,2.80
2023-01-27T09:39:29.580Z,3.37
2023-01-27T09:45:11.273Z,3.27
2023-01-27T09:50:38.591Z,2.53
2023-01-27T09:55:43.446Z,3.10
2023-01-27T10:00:48.430Z,3.27
2023-01-27T10:06:34.442Z,2.50
2023-01-27T10:11:52.443Z,3.10
2023-01-27T10:17:09.958Z,2.60
2023-01-27T10:22:36.708Z,2.70
2023-01-27T10:27:43.680Z,2.87
2023-01-27T10:33:07.477Z,2.70
2023-01-27T10:38:29.445Z,3.23
2023-01-27T10:43:52.156Z,3.07
2023-01-27T10:49:23.238Z,3.10
2023-01-27T10:54:36.435Z,3.57
2023-01-27T10:59:46.398Z,3.20
2023-01-27T11:05:01.058Z,3.67
2023-01-27T11:10:13.065Z,3.10
2023-01-27T11:15:27.741Z,3.60
2023-01-27T11:20:54.551Z,3.07
2023-01-27T11:26:09.943Z,3.23
2023-01-27T11:31:15.667Z,3.03
2023-01-27T11:36:18.195Z,2.93
2023-01-27T11:41:20.696Z,3.20
2023-01-27T11:46:24.209Z,3.10
2023-01-27T11:51:40.358Z,4.27
2023-01-27T11:56:46.383Z,3.10
2023-01-27T12:01:53.292Z,3.33
2023-01-27T12:06:59.872Z,3.53
2023-01-27T12:12:14.388Z,3.97
2023-01-27T12:17:30.962Z,3.40
2023-01-27T12:22:35.177Z,3.70
2023-01-27T12:27:41.580Z,3.43
2023-01-27T12:32:46.686Z,3.40
2023-01-27T12:37:49.685Z,3.67
2023-01-27T12:43:16.550Z,3.77
2023-01-27T12:48:20.376Z,3.53
2023-01-27T12:53:28.028Z,3.43
2023-01-27T12:58:36.533Z,3.73
2023-01-27T13:03:41.234Z,4.23
2023-01-27T13:08:44.047Z,5.00
2023-01-27T13:13:51.457Z,3.87
2023-01-27T13:18:58.810Z,4.20
2023-01-27T13:24:04.096Z,4.17
2023-01-27T13:29:09.457Z,3.63
2023-01-27T13:34:37.527Z,3.40
2023-01-27T13:39:54.964Z,3.40
2023-01-27T13:45:07.956Z,3.93
2023-01-27T13:50:23.133Z,3.40
2023-01-27T13:55:41.031Z,4.93
2023-01-27T14:00:53.873Z,4.97
2023-01-27T14:06:11.819Z,3.67
2023-01-27T14:11:26.323Z,4.13
2023-01-27T14:16:43.210Z,3.50
2023-01-27T14:22:25.576Z,4.60
2023-01-27T14:28:01.366Z,3.40
2023-01-27T14:33:15.260Z,4.43
2023-01-27T14:38:26.981Z,4.40
2023-01-27T14:44:00.363Z,4.83
2023-01-27T14:49:10.195Z,4.27
2023-01-27T14:54:31.606Z,3.63
2023-01-27T14:59:59.144Z,4.10
2023-01-27T15:05:29.297Z,3.80
2023-01-27T15:10:32.440Z,4.38
2023-01-27T15:15:56.046Z,5.13
2023-01-27T15:21:04.086Z,4.53
2023-01-27T15:26:08.586Z,4.35
2023-01-27T15:31:24.279Z,4.80
2023-01-27T15:36:32.430Z,4.97
2023-01-27T15:41:38.039Z,4.93
2023-01-27T15:46:45.039Z,4.90
2023-01-27T15:51:49.703Z,4.40
2023-01-27T15:56:54.116Z,4.30
2023-01-27T16:02:17.649Z,5.90
2023-01-27T16:07:32.036Z,4.93
2023-01-27T16:12:48.730Z,5.00
2023-01-27T16:18:03.416Z,4.57
2023-01-27T16:23:16.212Z,4.70
2023-01-27T16:28:21.705Z,5.93
2023-01-27T16:33:31.761Z,4.83
2023-01-27T16:38:39.574Z,4.90
2023-01-27T16:44:04.910Z,6.17
2023-01-27T16:49:32.344Z,4.43
2023-01-27T16:54:40.853Z,5.43
2023-01-27T16:59:43.008Z,4.37
2023-01-27T17:04:49.958Z,4.90
2023-01-27T17:10:01.408Z,5.43
2023-01-27T17:15:26.341Z,5.10
2023-01-27T17:20:34.138Z,6.20
2023-01-27T17:25:38.693Z,4.80
2023-01-27T17:30:42.445Z,4.40
2023-01-27T17:35:50.271Z,5.97
2023-01-27T17:40:54.681Z,5.00
2023-01-27T17:46:06.307Z,4.83
2023-01-27T17:51:13.273Z,4.47
2023-01-27T17:56:20.819Z,5.50
2023-01-27T18:01:23.498Z,5.23
2023-01-27T18:06:29.147Z,4.93
2023-01-27T18:11:34.215Z,5.73
2023-01-27T18:16:37.170Z,4.50
2023-01-27T18:21:39.610Z,5.23
2023-01-27T18:26:43.562Z,4.50
2023-01-27T18:32:03.044Z,4.60
2023-01-27T18:37:23.399Z,5.07
2023-01-27T18:42:29.368Z,5.57
2023-01-27T18:47:35.308Z,4.70
2023-01-27T18:52:41.123Z,5.60
2023-01-27T18:57:44.886Z,6.13
2023-01-27T19:03:04.925Z,5.83
2023-01-27T19:13:10.796Z,5.57
2023-01-27T19:18:16.245Z,6.20
2023-01-27T19:23:21.438Z,5.90
2023-01-27T19:28:33.288Z,7.07
2023-01-27T19:33:37.613Z,7.87
2023-01-27T19:38:39.937Z,8.13
2023-01-27T19:43:42.364Z,7.67
2023-01-27T19:48:44.701Z,6.73
2023-01-27T19:53:47.234Z,7.37
2023-01-27T19:58:52.860Z,7.13
2023-01-27T20:03:55.282Z,5.87
2023-01-27T20:09:09.076Z,7.53
2023-01-27T20:14:16.819Z,6.37
2023-01-27T20:19:19.444Z,6.47
2023-01-27T20:24:21.854Z,6.00
2023-01-27T20:29:24.066Z,7.20
2023-01-27T20:34:26.268Z,5.97
2023-01-27T20:39:31.712Z,6.67
2023-01-27T20:44:33.996Z,7.70
2023-01-27T20:49:36.917Z,7.60
2023-01-27T20:54:39.058Z,7.27
2023-01-27T20:59:42.275Z,6.77
2023-01-27T21:04:44.864Z,6.33
2023-01-27T21:09:57.090Z,5.33
2023-01-27T21:14:59.441Z,7.00
2023-01-27T21:20:02.181Z,6.27
2023-01-27T21:25:06.285Z,7.03
2023-01-27T21:30:09.284Z,7.90
2023-01-27T21:35:11.742Z,6.97
2023-01-27T21:40:14.368Z,5.83
2023-01-27T21:45:17.451Z,6.37
2023-01-27T21:50:19.977Z,6.90
2023-01-27T21:55:26.885Z,7.07
2023-01-27T22:00:35.462Z,7.07
2023-01-27T22:05:39.401Z,5.63
2023-01-27T22:10:41.642Z,3.43
2023-01-27T22:20:57.280Z,2.10
2023-01-27T22:25:59.465Z,2.17
2023-01-27T22:31:02.861Z,1.77
2023-01-27T22:36:05.863Z,1.47
2023-01-27T22:41:08.327Z,1.53
2023-01-27T22:46:10.902Z,1.77
2023-01-27T22:51:13.115Z,1.60
2023-01-27T22:56:15.571Z,1.50
2023-01-27T23:01:17.869Z,1.30
2023-01-27T23:06:20.200Z,1.40
2023-01-27T23:11:22.375Z,1.10
2023-01-27T23:16:24.546Z,1.10
2023-01-27T23:21:26.880Z,1.10
2023-01-27T23:26:29.199Z,0.80
2023-01-27T23:31:31.493Z,1.03
2023-01-27T23:36:33.912Z,0.90
2023-01-27T23:41:36.030Z,0.73
2023-01-27T23:46:38.547Z,0.60
2023-01-27T23:51:40.825Z,0.63
2023-01-27T23:56:43.020Z,0.63
